Time;durP1;ratioP1;P1;durP2;ratioP2;P2;SDS_P1;SDS_P2;PMS_P1;PMS_P2;Temp;Humidity;BMP_temperature;BMP_pressure;BME280_temperature;BME280_humidity;BME280_pressure;Samples;Min_cycle;Max_cycle;Signal;HPM_P1;HPM_P2
2021/08/21 00:00:14;;;;;;;7.33;5.50;;;18.10;99.90;;;18.09;91.52;98346.19;5055293;28;20659;-82
2021/08/21 00:02:44;;;;;;;6.13;5.50;;;18.10;99.90;;;18.07;91.40;98347.31;5069627;28;20637;-82
2021/08/21 00:05:13;;;;;;;6.93;6.10;;;18.10;99.90;;;18.04;91.60;98344.94;5071790;28;21031;-82
2021/08/21 00:07:42;;;;;;;8.17;6.13;;;18.10;99.90;;;18.01;91.87;98342.59;5067367;28;20733;-82
2021/08/21 00:10:22;;;;;;;6.30;5.33;;;18.00;99.90;;;17.97;91.29;98354.44;5074429;28;20623;-82
2021/08/21 00:12:50;;;;;;;7.63;6.83;;;18.00;99.90;;;17.92;91.34;98346.94;5081754;28;20672;-82
2021/08/21 00:15:20;;;;;;;6.37;5.80;;;17.90;99.90;;;17.90;91.63;98347.25;5071989;28;20650;-82
2021/08/21 00:17:50;;;;;;;6.50;5.90;;;17.90;99.90;;;17.87;91.75;98344.88;5071837;28;20638;-82
2021/08/21 00:20:20;;;;;;;6.93;6.13;;;17.90;99.90;;;17.82;91.67;98347.94;5071665;28;20662;-82
2021/08/21 00:22:49;;;;;;;8.27;5.90;;;17.90;99.90;;;17.80;91.84;98347.28;5070699;28;20649;-82
2021/08/21 00:25:18;;;;;;;7.00;6.20;;;17.80;99.90;;;17.78;91.47;98343.09;5070002;28;20653;-82
2021/08/21 00:27:47;;;;;;;8.10;6.40;;;17.80;99.90;;;17.77;92.24;98351.97;5069795;28;20646;-82
2021/08/21 00:30:17;;;;;;;7.40;6.00;;;17.80;99.90;;;17.74;91.95;98349.63;5070864;28;20629;-82
2021/08/21 00:32:45;;;;;;;6.13;5.50;;;17.70;99.90;;;17.72;91.81;98347.13;5088334;28;20642;-82
2021/08/21 00:35:15;;;;;;;8.50;5.97;;;17.70;99.90;;;17.68;91.72;98353.69;5071292;28;21070;-82
2021/08/21 00:37:44;;;;;;;7.17;6.13;;;17.70;99.90;;;17.66;91.81;98345.06;5071758;28;20738;-82
2021/08/21 00:40:14;;;;;;;6.50;5.90;;;17.70;99.90;;;17.65;90.97;98343.41;5058346;28;20641;-82
2021/08/21 00:42:42;;;;;;;10.30;6.23;;;17.70;99.90;;;17.64;91.58;98341.75;5073884;28;21040;-82
2021/08/21 00:45:12;;;;;;;6.40;5.80;;;17.70;99.90;;;17.62;91.89;98342.84;5056140;28;20630;-82
2021/08/21 00:47:41;;;;;;;8.00;5.80;;;17.60;99.90;;;17.59;91.96;98346.63;5075564;28;20669;-82
2021/08/21 00:50:10;;;;;;;6.50;5.80;;;17.60;99.90;;;17.56;91.49;98338.97;5072951;28;20717;-82
2021/08/21 00:52:40;;;;;;;7.60;5.80;;;17.60;99.90;;;17.52;91.82;98342.03;5076680;28;20658;-83
2021/08/21 00:55:11;;;;;;;7.37;6.27;;;17.60;99.90;;;17.47;91.55;98339.00;5077363;28;20949;-82
2021/08/21 00:57:40;;;;;;;7.57;5.87;;;17.50;99.90;;;17.45;92.32;98342.75;5072807;28;20670;-82
2021/08/21 01:00:11;;;;;;;8.50;5.83;;;17.50;99.90;;;17.43;92.47;98339.44;5071661;28;21172;-83
2021/08/21 01:02:41;;;;;;;8.07;5.80;;;17.50;99.90;;;17.41;91.71;98338.72;5083265;28;20624;-82
2021/08/21 01:05:15;;;;;;;7.63;6.33;;;17.40;99.90;;;17.38;91.56;98344.28;5071869;28;20706;-82
2021/08/21 01:07:46;;;;;;;6.90;6.20;;;17.50;99.90;;;17.37;91.72;98337.34;5050135;28;20649;-82
2021/08/21 01:10:18;;;;;;;6.20;5.60;;;17.40;99.90;;;17.32;92.19;98335.13;5072005;28;20715;-82
2021/08/21 01:12:50;;;;;;;6.30;5.67;;;17.40;99.90;;;17.27;91.36;98332.06;5055165;28;20679;-82
2021/08/21 01:15:24;;;;;;;7.60;5.80;;;17.30;99.90;;;17.27;91.87;98332.06;5054051;28;20767;-82
2021/08/21 01:18:05;;;;;;;8.03;6.20;;;17.30;99.90;;;17.24;91.37;98334.16;5073062;28;20704;-82
2021/08/21 01:20:34;;;;;;;8.60;5.80;;;17.30;99.90;;;17.22;91.64;98330.84;5064546;28;20672;-82
2021/08/21 01:23:06;;;;;;;6.57;5.87;;;17.30;99.90;;;17.20;91.92;98335.34;5072696;28;20633;-82
2021/08/21 01:25:41;;;;;;;7.57;6.00;;;17.20;99.90;;;17.17;92.43;98336.50;5069018;28;20628;-82
2021/08/21 01:28:14;;;;;;;6.93;6.33;;;17.20;99.90;;;17.15;92.93;98334.97;5052269;28;20681;-82
2021/08/21 01:31:15;;;;;;;6.83;6.13;;;17.20;99.90;;;17.11;92.18;98325.69;5055321;28;20996;-82
2021/08/21 01:33:44;;;;;;;8.20;5.80;;;17.20;99.90;;;17.06;91.69;98322.59;5072450;28;20748;-82
2021/08/21 01:36:13;;;;;;;7.30;5.70;;;17.10;99.90;;;17.03;93.22;98330.78;5075380;28;20729;-82
2021/08/21 01:39:01;;;;;;;6.67;5.90;;;17.10;99.90;;;17.02;93.40;98321.25;5072060;28;20638;-82
2021/08/21 01:41:43;;;;;;;6.40;5.80;;;17.10;99.90;;;16.98;93.51;98320.66;5071213;28;21192;-82
2021/08/21 01:44:18;;;;;;;14.47;5.90;;;17.00;99.90;;;16.97;92.01;98323.44;5053771;28;20670;-82
2021/08/21 01:46:48;;;;;;;6.60;5.90;;;17.00;99.90;;;16.94;92.24;98307.91;5070354;28;20628;-82
2021/08/21 01:49:20;;;;;;;8.03;5.90;;;17.00;99.90;;;16.91;92.13;98323.97;5073283;28;20635;-82
2021/08/21 01:51:52;;;;;;;7.00;5.10;;;16.90;99.90;;;16.90;92.58;98321.50;5071509;28;20722;-82
2021/08/21 01:54:25;;;;;;;6.33;5.73;;;17.00;99.90;;;16.87;91.74;98317.34;5072166;28;20632;-82
2021/08/21 01:56:57;;;;;;;6.70;6.00;;;16.90;99.90;;;16.86;93.27;98323.56;5072839;28;20685;-82
2021/08/21 01:59:43;;;;;;;7.07;6.37;;;16.90;99.90;;;16.85;92.20;98319.25;5067599;28;20667;-82
2021/08/21 02:02:21;;;;;;;9.13;6.30;;;16.90;99.90;;;16.84;93.53;98320.25;5086156;28;20633;-83
2021/08/21 02:05:09;;;;;;;9.50;6.27;;;16.90;99.90;;;16.82;93.22;98316.09;5089092;28;20734;-83
2021/08/21 02:07:38;;;;;;;8.63;5.80;;;16.90;99.90;;;16.79;91.97;98314.53;5067888;28;20644;-83
2021/08/21 02:10:09;;;;;;;6.43;5.80;;;16.90;99.90;;;16.77;92.82;98311.22;5072806;28;20636;-83
2021/08/21 02:12:38;;;;;;;6.90;6.10;;;16.90;99.90;;;16.78;92.38;98304.13;5073221;28;21001;-83
2021/08/21 02:15:12;;;;;;;6.73;6.03;;;16.80;99.90;;;16.76;92.26;98312.19;5068516;28;20644;-83
2021/08/21 02:17:44;;;;;;;10.13;6.30;;;16.80;99.90;;;16.77;93.60;98305.94;5087620;28;20664;-83
2021/08/21 02:20:33;;;;;;;7.57;5.80;;;16.80;99.90;;;16.77;94.14;98311.22;5086447;28;20771;-83
2021/08/21 02:23:03;;;;;;;7.10;6.40;;;16.80;99.90;;;16.77;93.59;98303.31;5055085;28;20725;-83
2021/08/21 02:25:33;;;;;;;7.00;5.87;;;16.80;99.90;;;16.76;94.29;98299.00;5069001;28;20637;-82
2021/08/21 02:28:07;;;;;;;6.30;5.70;;;16.80;99.90;;;16.78;93.85;98305.00;5085612;28;20702;-83
2021/08/21 02:30:41;;;;;;;7.00;6.30;;;16.80;99.90;;;16.79;94.67;98304.00;5088592;28;20644;-83
2021/08/21 02:33:09;;;;;;;6.67;6.07;;;16.90;99.90;;;16.79;94.85;98309.28;5072296;28;20629;-83
2021/08/21 02:35:39;;;;;;;6.80;6.10;;;16.90;99.90;;;16.77;93.12;98305.94;5074211;28;20696;-83
2021/08/21 02:38:10;;;;;;;7.43;6.70;;;16.80;99.90;;;16.75;94.17;98307.09;5073722;28;21328;-83
2021/08/21 02:40:39;;;;;;;7.10;6.33;;;16.80;99.90;;;16.73;93.18;98309.84;5072436;28;20675;-83
2021/08/21 02:43:09;;;;;;;7.50;6.13;;;16.80;99.90;;;16.73;94.33;98301.94;5072865;28;20635;-83
2021/08/21 02:45:39;;;;;;;7.63;5.93;;;16.80;99.90;;;16.74;94.64;98303.59;5066463;28;20739;-83
2021/08/21 02:48:08;;;;;;;8.37;6.10;;;16.80;99.90;;;16.71;93.80;98303.88;5052814;28;20707;-82
2021/08/21 02:50:37;;;;;;;7.47;5.67;;;16.80;99.90;;;16.69;93.84;98294.47;5054828;28;20626;-82
2021/08/21 02:53:05;;;;;;;8.93;5.53;;;16.70;99.90;;;16.67;94.17;98293.75;5074383;28;20644;-83
2021/08/21 02:55:34;;;;;;;8.50;6.37;;;16.70;99.90;;;16.65;93.19;98303.59;5071174;28;21213;-83
2021/08/21 02:58:03;;;;;;;6.20;5.60;;;16.70;99.90;;;16.64;93.05;98297.50;5051116;28;20983;-83
2021/08/21 03:00:41;;;;;;;6.50;5.77;;;16.70;99.90;;;16.64;92.96;98292.22;5083769;28;20645;-83
2021/08/21 03:03:12;;;;;;;6.47;5.50;;;16.70;99.90;;;16.63;92.97;98293.19;5066172;28;21056;-83
2021/08/21 03:05:45;;;;;;;7.00;6.10;;;16.70;99.90;;;16.62;94.55;98295.97;5089789;28;20711;-82
2021/08/21 03:08:15;;;;;;;7.27;6.57;;;16.70;99.90;;;16.61;92.70;98297.78;5088158;28;20638;-83
2021/08/21 03:10:48;;;;;;;7.30;6.00;;;16.70;99.90;;;16.61;94.79;98289.88;5070777;28;20633;-83
2021/08/21 03:13:17;;;;;;;6.10;5.60;;;16.70;99.90;;;16.60;94.80;98292.63;5072387;28;20650;-83
2021/08/21 03:15:47;;;;;;;6.87;5.77;;;16.70;99.90;;;16.59;93.59;98288.34;5072742;28;21177;-82
2021/08/21 03:18:16;;;;;;;7.03;6.33;;;16.70;99.90;;;16.59;92.81;98286.53;5071624;28;20688;-83
2021/08/21 03:20:50;;;;;;;7.80;6.33;;;16.70;99.90;;;16.58;92.91;98284.88;5054135;28;20698;-83
2021/08/21 03:23:19;;;;;;;7.67;5.73;;;16.70;99.90;;;16.56;93.49;98292.06;5070357;28;20634;-83
2021/08/21 03:25:47;;;;;;;9.73;5.93;;;16.70;99.90;;;16.55;93.81;98295.69;5075130;28;20719;-83
2021/08/21 03:28:16;;;;;;;6.90;5.90;;;16.70;99.90;;;16.54;93.18;98283.47;5073140;28;21163;-83
2021/08/21 03:30:47;;;;;;;6.90;5.70;;;16.60;99.90;;;16.53;93.67;98292.34;5070846;28;20671;-83
2021/08/21 03:33:27;;;;;;;6.57;5.87;;;16.60;99.90;;;16.52;93.93;98293.31;5066097;28;20629;-83
2021/08/21 03:35:56;;;;;;;8.23;6.13;;;16.60;99.90;;;16.52;94.71;98300.38;5056339;28;20651;-83
2021/08/21 03:38:27;;;;;;;7.43;5.90;;;16.60;99.90;;;16.51;94.91;98302.19;5071779;28;21008;-82
2021/08/21 03:41:03;;;;;;;7.70;5.97;;;16.60;99.90;;;16.51;93.35;98302.19;5072073;28;20643;-83
2021/08/21 03:43:38;;;;;;;7.30;6.53;;;16.60;99.90;;;16.50;95.09;98301.50;5052198;28;20645;-82
2021/08/21 03:46:08;;;;;;;6.67;5.97;;;16.50;99.90;;;16.52;94.38;98305.63;5053437;28;20630;-83
2021/08/21 03:48:37;;;;;;;6.33;5.33;;;16.60;99.90;;;16.53;95.06;98302.88;5057147;28;21213;-83
2021/08/21 03:51:06;;;;;;;7.70;5.30;;;16.60;99.90;;;16.54;93.65;98296.63;5069697;28;20663;-83
2021/08/21 03:53:40;;;;;;;10.07;6.40;;;16.60;99.90;;;16.54;93.62;98299.28;5067525;28;20635;-83
2021/08/21 03:56:13;;;;;;;7.27;6.03;;;16.60;99.90;;;16.57;93.57;98303.44;5057776;28;20674;-83
2021/08/21 03:58:49;;;;;;;7.50;6.37;;;16.60;99.90;;;16.56;94.69;98297.31;5056723;28;20655;-83
2021/08/21 04:01:19;;;;;;;6.40;5.67;;;16.60;99.90;;;16.58;94.71;98298.03;5069718;28;20691;-82
2021/08/21 04:03:52;;;;;;;7.03;6.33;;;16.70;99.90;;;16.57;94.87;98299.00;5053811;28;20633;-83
2021/08/21 04:06:22;;;;;;;7.53;6.80;;;16.60;99.90;;;16.56;94.33;98296.50;5059058;28;20699;-83
2021/08/21 04:08:51;;;;;;;6.87;5.80;;;16.60;99.90;;;16.54;95.27;98304.53;5054569;28;20635;-83
2021/08/21 04:11:29;;;;;;;6.50;5.90;;;16.60;99.90;;;16.52;93.47;98300.38;5071832;28;20618;-83
2021/08/21 04:14:18;;;;;;;10.63;5.90;;;16.60;99.90;;;16.50;95.69;98297.88;5067090;28;23135;-83
2021/08/21 04:16:49;;;;;;;6.23;5.57;;;16.60;99.90;;;16.51;93.79;98290.81;5067788;28;20728;-82
2021/08/21 04:19:19;;;;;;;7.00;6.23;;;16.60;99.90;;;16.50;93.28;98301.50;5087839;28;20652;-83
2021/08/21 04:21:50;;;;;;;7.07;6.07;;;16.60;99.90;;;16.48;95.15;98301.63;5059384;28;20647;-82
2021/08/21 04:24:28;;;;;;;7.73;5.97;;;16.60;99.90;;;16.47;95.07;98302.59;5075944;28;20638;-83
2021/08/21 04:27:04;;;;;;;7.40;5.63;;;16.50;99.90;;;16.44;94.11;98302.84;5057138;28;20721;-83
2021/08/21 04:29:35;;;;;;;9.10;5.83;;;16.50;99.90;;;16.43;94.36;98308.25;5071512;28;20657;-83
2021/08/21 04:32:07;;;;;;;6.97;6.27;;;16.50;99.90;;;16.43;93.23;98305.63;5074930;28;20729;-83
2021/08/21 04:34:36;;;;;;;6.13;5.37;;;16.50;99.90;;;16.44;94.74;98304.66;5069419;28;21207;-83
2021/08/21 04:37:11;;;;;;;6.60;6.00;;;16.50;99.90;;;16.43;94.77;98311.72;5057916;28;20664;-82
2021/08/21 04:39:42;;;;;;;7.73;6.47;;;16.50;99.90;;;16.45;93.92;98306.31;5077258;28;20741;-82
2021/08/21 04:42:14;;;;;;;8.23;6.13;;;16.50;99.90;;;16.47;93.52;98309.66;5080900;28;20626;-82
2021/08/21 04:44:43;;;;;;;6.87;6.10;;;16.50;99.90;;;16.50;93.58;98306.75;5075889;28;20715;-82
2021/08/21 04:47:15;;;;;;;10.10;7.93;;;16.50;99.90;;;16.53;93.64;98307.31;5071309;28;20639;-82
2021/08/21 04:49:45;;;;;;;9.23;6.70;;;16.60;99.90;;;16.54;94.31;98308.97;5074246;28;20630;-82
2021/08/21 04:52:14;;;;;;;8.67;7.00;;;16.60;99.90;;;16.56;95.05;98307.84;5073693;28;20677;-82
2021/08/21 04:54:44;;;;;;;7.57;6.50;;;16.60;99.90;;;16.61;93.69;98323.25;5075415;28;20644;-82
2021/08/21 04:57:15;;;;;;;6.90;5.90;;;16.60;99.90;;;16.65;94.26;98322.84;5074211;28;20712;-82
2021/08/21 04:59:48;;;;;;;6.67;5.90;;;16.70;99.90;;;16.69;93.54;98321.63;5089667;28;20671;-82
2021/08/21 05:02:18;;;;;;;6.83;6.13;;;16.70;99.90;;;16.74;94.04;98326.47;5086601;28;20651;-82
2021/08/21 05:04:47;;;;;;;7.50;6.63;;;16.70;99.90;;;16.78;94.93;98327.84;5072559;28;20632;-82
2021/08/21 05:07:17;;;;;;;7.83;5.63;;;16.80;99.90;;;16.80;93.37;98328.56;5074494;28;20628;-82
2021/08/21 05:09:48;;;;;;;7.97;5.80;;;16.70;99.90;;;16.85;94.39;98324.53;5075123;28;20643;-83
2021/08/21 05:12:21;;;;;;;6.90;6.20;;;16.80;99.90;;;16.91;92.83;98326.63;5069348;28;20643;-83
2021/08/21 05:15:14;;;;;;;7.13;6.43;;;16.80;99.90;;;17.00;92.70;98328.44;5071401;28;20631;-82
2021/08/21 05:17:49;;;;;;;7.63;5.90;;;17.00;99.90;;;17.04;94.11;98324.56;5063486;28;20765;-82
2021/08/21 05:20:41;;;;;;;7.47;6.40;;;17.00;99.90;;;17.14;92.92;98320.94;5057275;28;20713;-82
2021/08/21 05:23:15;;;;;;;7.70;7.00;;;17.10;99.90;;;17.28;93.09;98322.38;5056739;28;20647;-82
2021/08/21 05:25:46;;;;;;;7.97;7.20;;;17.20;99.90;;;17.42;93.03;98329.84;5073263;28;20650;-82
2021/08/21 05:28:17;;;;;;;8.03;7.23;;;17.30;99.90;;;17.58;92.01;98333.56;5074042;28;20636;-82
2021/08/21 05:30:48;;;;;;;8.47;7.67;;;17.40;99.90;;;17.76;92.63;98330.03;5088296;28;20638;-82
2021/08/21 05:33:19;;;;;;;9.30;7.63;;;17.60;99.90;;;17.94;91.56;98328.34;5065036;28;20622;-82
2021/08/21 05:35:50;;;;;;;7.57;6.73;;;17.80;99.90;;;18.12;90.50;98337.16;5091519;28;20690;-82
2021/08/21 05:38:19;;;;;;;7.80;6.10;;;17.90;99.90;;;18.27;89.70;98330.47;5075044;28;20679;-83
2021/08/21 05:40:48;;;;;;;6.60;6.00;;;18.10;99.90;;;18.42;89.60;98335.94;5087503;28;20625;-82
2021/08/21 05:43:17;;;;;;;7.10;6.40;;;18.20;99.90;;;18.53;89.45;98332.25;5077537;28;20668;-82
2021/08/21 05:45:45;;;;;;;6.63;6.03;;;18.30;99.90;;;18.64;89.00;98338.19;5073872;28;20712;-82
2021/08/21 05:48:14;;;;;;;9.03;6.60;;;18.50;99.90;;;18.69;87.90;98327.16;5074447;28;20634;-82
2021/08/21 05:50:44;;;;;;;6.33;5.63;;;18.50;99.90;;;18.71;86.86;98331.31;5085112;28;20637;-82
2021/08/21 05:53:13;;;;;;;7.07;5.97;;;18.50;99.90;;;18.73;86.19;98323.22;5070659;28;21163;-82
2021/08/21 05:55:42;;;;;;;6.50;5.90;;;18.50;99.90;;;18.71;87.02;98327.84;5072706;28;20734;-82
2021/08/21 05:58:13;;;;;;;8.17;5.67;;;18.60;99.90;;;18.69;88.06;98338.56;5087529;28;20684;-82
2021/08/21 06:00:47;;;;;;;6.53;5.93;;;18.60;99.90;;;18.63;87.05;98341.78;5072551;28;20640;-82
2021/08/21 06:03:18;;;;;;;8.33;6.67;;;18.50;99.90;;;18.60;87.63;98343.91;5069852;28;20624;-82
2021/08/21 06:05:48;;;;;;;6.80;6.20;;;18.50;99.90;;;18.77;87.18;98340.47;5074724;28;20633;-82
2021/08/21 06:08:18;;;;;;;8.47;6.77;;;18.60;99.90;;;19.09;87.14;98345.13;5069846;28;20643;-82
2021/08/21 06:10:54;;;;;;;10.23;6.87;;;18.80;99.90;;;19.43;85.79;98346.91;5070478;28;20727;-82
2021/08/21 06:13:24;;;;;;;8.23;6.67;;;19.10;99.90;;;19.76;86.84;98346.19;5087404;28;20664;-83
2021/08/21 06:15:53;;;;;;;6.77;6.17;;;19.40;99.90;;;20.03;85.23;98357.47;5052821;28;20722;-82
2021/08/21 06:18:21;;;;;;;6.17;5.53;;;19.70;99.90;;;20.23;83.67;98356.28;5070653;28;20671;-82
2021/08/21 06:20:52;;;;;;;6.87;6.17;;;19.90;99.90;;;20.32;83.27;98359.81;5070621;28;21220;-82
2021/08/21 06:23:20;;;;;;;6.63;6.03;;;20.10;99.90;;;20.31;83.50;98363.44;5056093;28;20660;-82
2021/08/21 06:25:49;;;;;;;6.87;6.00;;;20.10;99.90;;;20.30;81.63;98361.75;5072072;28;21205;-82
2021/08/21 06:28:19;;;;;;;6.87;6.17;;;20.10;99.90;;;20.31;82.63;98355.47;5072514;28;20693;-82
2021/08/21 06:30:47;;;;;;;6.70;6.10;;;20.10;99.90;;;20.35;82.66;98366.44;5069722;28;20734;-82
2021/08/21 06:33:16;;;;;;;6.60;5.67;;;20.20;99.90;;;20.47;83.21;98361.69;5067939;28;20642;-82
2021/08/21 06:35:45;;;;;;;6.10;5.53;;;20.30;99.90;;;20.65;82.97;98359.78;5066645;28;20631;-82
2021/08/21 06:38:15;;;;;;;6.17;5.57;;;20.50;99.90;;;20.78;82.20;98355.72;5070282;28;20670;-82
2021/08/21 06:40:43;;;;;;;5.70;5.10;;;20.50;99.90;;;20.90;81.31;98351.78;5067113;28;20632;-82
2021/08/21 06:43:12;;;;;;;6.37;5.77;;;20.70;99.60;;;21.00;81.96;98355.94;5068078;28;20713;-82
2021/08/21 06:46:01;;;;;;;6.20;5.60;;;20.80;99.60;;;21.13;80.98;98360.78;5070095;28;20647;-82
2021/08/21 06:48:32;;;;;;;6.70;5.63;;;20.90;99.10;;;21.20;80.09;98359.13;5062664;28;21265;-82
2021/08/21 06:51:00;;;;;;;6.00;5.27;;;21.00;98.60;;;21.23;80.82;98353.47;5065354;28;20647;-82
2021/08/21 06:53:30;;;;;;;6.00;5.40;;;21.10;98.70;;;21.37;80.28;98354.50;5070591;28;20679;-82
2021/08/21 06:56:01;;;;;;;5.80;5.30;;;21.20;98.50;;;21.53;80.12;98357.19;5067216;28;20997;-82
2021/08/21 06:58:30;;;;;;;9.00;5.77;;;21.30;98.80;;;21.71;80.17;98357.00;5065878;28;20729;-84
2021/08/21 07:00:59;;;;;;;6.13;5.23;;;21.40;98.40;;;21.86;79.89;98358.81;5070031;28;20692;-84
2021/08/21 07:03:28;;;;;;;6.80;5.77;;;21.60;98.50;;;22.08;79.93;98358.13;5052268;28;20644;-84
2021/08/21 07:05:57;;;;;;;6.67;6.00;;;21.80;98.50;;;22.24;80.24;98362.44;5083490;28;21246;-84
2021/08/21 07:08:25;;;;;;;6.07;5.50;;;21.90;98.70;;;22.36;79.26;98361.09;5064206;28;20635;-85
2021/08/21 07:10:55;;;;;;;7.77;6.30;;;22.10;98.00;;;22.45;79.43;98354.75;5071016;28;20649;-84
2021/08/21 07:13:24;;;;;;;5.60;5.10;;;22.10;97.70;;;22.63;79.40;98354.50;5060299;28;20723;-83
2021/08/21 07:15:53;;;;;;;7.57;6.20;;;22.30;97.90;;;22.66;78.08;98352.34;5082549;28;20632;-83
2021/08/21 07:18:22;;;;;;;6.00;5.40;;;22.40;97.00;;;22.65;78.23;98344.53;5066934;28;20632;-83
2021/08/21 07:20:50;;;;;;;6.10;5.43;;;22.40;97.00;;;22.67;79.31;98346.00;5066903;28;20658;-83
2021/08/21 07:23:19;;;;;;;6.20;5.60;;;22.40;97.30;;;22.76;78.75;98352.94;5063624;28;20632;-83
2021/08/21 07:25:48;;;;;;;7.70;5.63;;;22.50;97.20;;;22.80;77.04;98349.75;5079969;28;20634;-83
2021/08/21 07:28:18;;;;;;;6.10;5.50;;;22.50;96.30;;;22.81;78.34;98345.28;5065200;28;20646;-83
2021/08/21 07:30:46;;;;;;;5.73;4.90;;;22.50;96.60;;;22.97;78.50;98343.41;5082189;28;20708;-83
2021/08/21 07:33:15;;;;;;;6.07;5.40;;;22.70;97.10;;;23.15;78.84;98345.78;5069481;28;21352;-83
2021/08/21 07:35:44;;;;;;;6.30;5.70;;;22.90;97.50;;;23.25;78.34;98345.34;5048033;28;20997;-83
2021/08/21 07:38:12;;;;;;;9.37;6.77;;;23.00;97.00;;;23.38;78.59;98342.94;5061381;28;20863;-83
2021/08/21 07:40:41;;;;;;;7.53;5.30;;;23.10;97.50;;;23.70;78.54;98345.38;5069269;28;21226;-83
2021/08/21 07:43:10;;;;;;;6.00;5.20;;;23.40;97.60;;;24.01;77.44;98348.75;5065346;28;20635;-83
2021/08/21 07:45:42;;;;;;;6.00;5.13;;;23.60;96.50;;;24.27;76.85;98361.47;5070511;28;20721;-83
2021/08/21 07:48:11;;;;;;;5.80;5.20;;;23.90;96.20;;;24.60;77.81;98356.59;5065407;28;20634;-83
2021/08/21 07:50:39;;;;;;;6.30;5.70;;;24.20;97.10;;;24.87;75.34;98357.59;5085748;28;20631;-83
2021/08/21 07:53:12;;;;;;;6.10;5.43;;;24.40;96.10;;;25.10;75.20;98352.97;5071496;28;21180;-85
2021/08/21 07:55:41;;;;;;;5.50;5.00;;;24.70;95.90;;;24.94;73.93;98357.69;5068061;28;20635;-84
2021/08/21 07:58:09;;;;;;;6.03;5.47;;;24.60;93.90;;;24.75;73.76;98344.94;5057296;28;20655;-82
2021/08/21 08:00:39;;;;;;;5.70;5.20;;;24.50;93.90;;;24.71;74.72;98354.31;5074399;28;20654;-82
2021/08/21 08:03:11;;;;;;;6.43;5.83;;;24.50;94.20;;;24.91;75.17;98353.56;5071340;28;20637;-82
2021/08/21 08:05:40;;;;;;;5.47;5.03;;;24.60;94.60;;;25.09;73.77;98362.00;5074417;28;20654;-82
2021/08/21 08:08:09;;;;;;;7.33;5.50;;;24.70;94.00;;;25.30;74.19;98357.53;5077353;28;21212;-82
2021/08/21 08:10:38;;;;;;;5.77;4.93;;;24.90;94.40;;;25.54;72.36;98365.16;5072051;28;20655;-82
2021/08/21 08:13:06;;;;;;;5.43;4.87;;;25.10;93.20;;;25.76;73.43;98358.81;5092817;28;21195;-83
2021/08/21 08:15:35;;;;;;;4.67;4.17;;;25.30;93.90;;;25.96;71.89;98357.94;5057593;28;20655;-83
2021/08/21 08:18:05;;;;;;;5.80;5.17;;;25.50;92.60;;;26.11;70.53;98362.19;5079352;28;20631;-82
2021/08/21 08:20:34;;;;;;;6.80;5.47;;;25.60;91.50;;;26.24;70.92;98367.63;5068543;28;20676;-83
2021/08/21 08:23:02;;;;;;;6.00;4.70;;;25.80;91.90;;;26.43;70.34;98364.31;5071048;28;20666;-83
2021/08/21 08:25:31;;;;;;;5.50;4.97;;;26.00;91.30;;;26.66;71.10;98364.84;5070436;28;20704;-83
2021/08/21 08:28:00;;;;;;;5.40;4.90;;;26.20;91.80;;;26.79;71.27;98359.53;5071395;28;20734;-82
2021/08/21 08:30:29;;;;;;;5.60;5.10;;;26.40;91.60;;;26.89;70.01;98357.38;5071835;28;20634;-83
2021/08/21 08:32:57;;;;;;;5.80;5.20;;;26.50;90.70;;;26.98;70.11;98362.34;5071256;28;20761;-83
2021/08/21 08:35:27;;;;;;;5.30;4.47;;;26.60;90.70;;;27.16;70.30;98354.59;5067892;28;20616;-83
2021/08/21 08:38:00;;;;;;;5.73;4.83;;;26.80;90.60;;;27.25;70.13;98356.06;5070875;28;20745;-83
2021/08/21 08:40:30;;;;;;;14.17;12.73;;;26.90;90.20;;;27.47;69.29;98361.06;5077984;28;20690;-83
2021/08/21 08:43:04;;;;;;;5.93;5.07;;;27.10;89.60;;;27.59;65.25;98371.00;5088028;28;20668;-83
2021/08/21 08:45:33;;;;;;;5.40;4.90;;;27.20;84.50;;;27.53;69.06;98354.91;5075217;28;21044;-83
2021/08/21 08:48:03;;;;;;;4.97;4.47;;;27.20;88.20;;;27.71;67.96;98360.50;5075461;28;20627;-83
2021/08/21 08:50:34;;;;;;;7.00;5.03;;;27.40;88.10;;;27.85;64.45;98356.81;5068292;28;20734;-83
2021/08/21 08:53:03;;;;;;;5.83;5.20;;;27.50;81.40;;;27.89;65.15;98358.03;5073910;28;20675;-83
2021/08/21 08:55:32;;;;;;;7.93;5.13;;;27.60;81.30;;;28.00;65.09;98356.38;5091301;28;20660;-83
2021/08/21 08:58:03;;;;;;;5.10;4.70;;;27.70;81.80;;;28.11;64.32;98358.47;5074421;28;21014;-83
2021/08/21 09:00:32;;;;;;;9.00;7.90;;;27.80;79.70;;;28.19;65.29;98355.59;5077268;28;20715;-83
2021/08/21 09:03:04;;;;;;;7.93;7.10;;;27.90;81.10;;;28.29;65.01;98353.28;5073463;28;20636;-83
2021/08/21 09:05:41;;;;;;;5.53;5.03;;;28.00;81.20;;;28.39;65.07;98352.88;5070349;28;20631;-83
2021/08/21 09:08:21;;;;;;;5.33;4.83;;;28.10;81.20;;;28.41;65.41;98351.63;5057956;28;20627;-83
2021/08/21 09:10:50;;;;;;;9.33;8.40;;;28.10;81.20;;;28.52;65.40;98350.97;5070658;28;20628;-83
2021/08/21 09:13:20;;;;;;;9.90;8.97;;;28.20;80.60;;;28.53;64.48;98349.94;5077603;28;21046;-83
2021/08/21 09:15:51;;;;;;;5.80;4.77;;;28.30;78.90;;;28.53;63.38;98352.63;5074356;28;21005;-83
2021/08/21 09:18:24;;;;;;;5.27;4.77;;;28.30;77.80;;;28.56;65.85;98350.34;5072809;28;20638;-83
2021/08/21 09:21:13;;;;;;;5.33;4.83;;;28.30;79.90;;;28.50;64.47;98356.53;5088743;28;20673;-83
2021/08/21 09:23:44;;;;;;;5.80;5.30;;;28.20;78.40;;;28.54;62.37;98351.59;5074270;28;20722;-83
2021/08/21 09:26:19;;;;;;;5.40;4.87;;;28.30;74.70;;;28.59;61.73;98357.16;5071648;28;20666;-82
2021/08/21 09:28:51;;;;;;;5.33;4.80;;;28.30;74.20;;;28.69;64.35;98354.91;5089098;28;20710;-83
2021/08/21 09:31:23;;;;;;;7.30;6.43;;;28.40;77.90;;;28.71;63.63;98355.50;5046910;28;20625;-83
2021/08/21 09:33:54;;;;;;;5.60;5.10;;;28.40;76.90;;;28.67;62.96;98367.69;5090765;28;20629;-82
2021/08/21 09:36:33;;;;;;;7.13;5.33;;;28.30;75.90;;;28.74;63.97;98349.72;5088935;28;20740;-82
2021/08/21 09:39:05;;;;;;;5.13;4.73;;;28.40;76.10;;;28.78;62.05;98353.63;5074712;28;20636;-83
2021/08/21 09:41:53;;;;;;;5.70;5.20;;;28.50;73.70;;;28.78;62.48;98351.75;5073376;28;21191;-83
2021/08/21 09:44:29;;;;;;;6.17;5.47;;;28.50;74.20;;;28.91;63.01;98350.88;5091685;28;20233;-83
2021/08/21 09:47:18;;;;;;;7.03;5.80;;;28.60;75.70;;;28.86;61.39;98350.69;5075944;28;20703;-83
2021/08/21 09:49:47;;;;;;;5.90;5.40;;;28.60;72.90;;;28.88;60.25;98343.25;5075729;28;20700;-83
2021/08/21 09:52:19;;;;;;;7.10;5.70;;;28.60;71.70;;;28.89;61.37;98345.72;5082474;28;21065;-81
2021/08/21 09:55:04;;;;;;;6.80;5.10;;;28.60;71.20;;;28.88;62.80;98340.56;5074877;28;20644;-82
2021/08/21 09:57:33;;;;;;;6.90;4.90;;;28.60;73.70;;;29.00;65.22;98343.22;5073596;28;20611;-83
2021/08/21 10:00:04;;;;;;;6.00;5.20;;;28.70;77.90;;;29.04;64.02;98339.03;5074526;28;21164;-82
2021/08/21 10:02:44;;;;;;;5.90;5.18;;;28.70;76.50;;;29.09;63.97;98335.69;5070252;28;20747;-83
2021/08/21 10:05:13;;;;;;;5.77;5.27;;;28.80;75.50;;;29.08;63.37;98334.88;5072614;28;20204;-83
2021/08/21 10:07:47;;;;;;;6.30;5.70;;;28.80;75.00;;;29.09;62.03;98333.00;5069300;28;20606;-83
2021/08/21 10:10:18;;;;;;;5.60;5.10;;;28.80;72.80;;;29.07;62.21;98329.72;5071012;28;20811;-82
2021/08/21 10:12:47;;;;;;;5.73;5.23;;;28.80;73.00;;;29.16;62.63;98326.56;5059770;28;20207;-82
2021/08/21 10:15:16;;;;;;;6.20;5.60;;;28.80;74.30;;;29.18;64.60;98332.56;5056535;28;20715;-82
2021/08/21 10:17:45;;;;;;;6.60;5.50;;;28.90;76.20;;;29.08;65.01;98324.13;5075104;28;20619;-82
2021/08/21 10:20:14;;;;;;;6.27;5.67;;;28.80;76.10;;;29.11;65.75;98323.72;5075917;28;21314;-82
2021/08/21 10:22:46;;;;;;;6.90;5.60;;;28.80;77.50;;;29.03;63.39;98323.13;5072283;28;20640;-82
2021/08/21 10:25:15;;;;;;;6.80;5.67;;;28.70;74.00;;;29.07;64.74;98321.66;5073150;28;20661;-82
2021/08/21 10:27:54;;;;;;;5.73;5.00;;;28.70;76.10;;;29.12;62.96;98321.84;5056003;28;20631;-82
2021/08/21 10:30:26;;;;;;;6.80;6.20;;;28.80;73.60;;;29.15;61.87;98324.09;5071215;28;20711;-82
2021/08/21 10:33:01;;;;;;;7.90;7.13;;;28.90;72.00;;;29.17;62.42;98317.47;5074267;28;21209;-82
2021/08/21 10:35:48;;;;;;;7.07;6.40;;;28.90;72.10;;;29.18;63.55;98318.28;5089446;28;20738;-82